aviador You're here:

KGPT Decoded Metar

GULFPORT in MS, USA
Report Time2017-04-24 12:53:00
UTC Time2017-04-24 13:17:03
Flight Rules vfr VFR
Wind310° at 09 kt
W.Decomp.*RWY 32: 8.8 kt HW 1.9 kt LCW
RWY 36: 5.5 kt HW 7.1 kt LCW
W.Rank310° ranks 18
Current wind is above 310° avg. (6.9)
Visibility9999 m
Phenomena:N/A
Clouds:N/A
Expected CloudBase > 800 ft AGL from Temp-Dew spread
CeilingNone
Temp13°C (ISA -2)
Dew Point11°C (88% RH)
AAT10.1°C
QNH1012 hPa
Density Alt30 ft
Elevation46 ft
Report Wrong Elevation
Raw Report
KGPT 241253Z 31009KT 10SM CLR 13/11 A2989=

Extra information for KGPT:More info

Metar Taf Metar & Taf Last 4 Metars F.Rules Stats Wind Profile Meteogram Temp Stats Airport Information Weather charts Add Link Nearby VenuesMetar ALERT Operation Metar Decoded Social comments

AIRNAV info for KGPT